createdAt,value
2019-05-01T00:01:27.251Z,9.54
2019-05-01T00:04:10.217Z,9.57
2019-05-01T00:06:45.162Z,9.58
2019-05-01T00:09:16.848Z,9.62
2019-05-01T00:11:48.511Z,9.59
2019-05-01T00:14:20.288Z,9.59
2019-05-01T00:16:52.305Z,9.57
2019-05-01T00:19:23.861Z,9.55
2019-05-01T00:21:55.391Z,9.53
2019-05-01T00:24:27.056Z,9.54
2019-05-01T00:26:58.826Z,9.55
2019-05-01T00:29:30.750Z,9.50
2019-05-01T00:32:02.534Z,9.50
2019-05-01T00:34:34.180Z,9.48
2019-05-01T00:37:05.807Z,9.40
2019-05-01T00:39:37.438Z,9.41
2019-05-01T00:42:09.003Z,9.51
2019-05-01T00:44:40.613Z,9.44
2019-05-01T00:47:12.234Z,9.44
2019-05-01T00:49:44.795Z,9.40
2019-05-01T00:52:16.415Z,9.41
2019-05-01T00:54:49.772Z,9.35
2019-05-01T00:57:37.285Z,9.34
2019-05-01T01:00:42.639Z,9.36
2019-05-01T01:03:04.706Z,9.36
2019-05-01T01:05:36.294Z,9.33
2019-05-01T01:08:07.847Z,9.33
2019-05-01T01:10:39.338Z,9.30
2019-05-01T01:13:10.851Z,9.33
2019-05-01T01:15:42.352Z,9.35
2019-05-01T01:18:13.893Z,9.40
2019-05-01T01:20:45.455Z,9.40
2019-05-01T01:23:18.349Z,9.44
2019-05-01T01:25:49.942Z,9.48
2019-05-01T01:28:21.729Z,9.47
2019-05-01T01:30:56.499Z,9.51
2019-05-01T01:33:27.563Z,9.43
2019-05-01T01:35:59.161Z,9.46
2019-05-01T01:38:30.716Z,9.49
2019-05-01T01:41:02.359Z,9.50
2019-05-01T01:43:53.020Z,9.47
2019-05-01T01:46:26.528Z,9.46
2019-05-01T01:48:59.332Z,9.49
2019-05-01T01:51:30.978Z,9.52
2019-05-01T01:54:03.027Z,9.57
2019-05-01T01:56:34.531Z,9.59
2019-05-01T01:59:07.275Z,9.56
2019-05-01T02:02:03.851Z,9.54
2019-05-01T02:04:54.504Z,9.45
2019-05-01T02:07:26.180Z,9.40
2019-05-01T02:09:57.909Z,9.21
2019-05-01T02:12:29.763Z,9.23
2019-05-01T02:15:01.368Z,9.28
2019-05-01T02:17:32.996Z,9.24
2019-05-01T02:20:05.949Z,9.32
2019-05-01T02:22:37.479Z,9.26
2019-05-01T02:25:10.847Z,9.15
2019-05-01T02:28:10.488Z,9.14
2019-05-01T02:30:45.890Z,9.17
2019-05-01T02:33:18.061Z,9.17
2019-05-01T02:35:50.151Z,9.10
2019-05-01T02:38:22.419Z,9.09
2019-05-01T02:40:59.687Z,9.12
2019-05-01T02:43:34.367Z,8.99
2019-05-01T02:46:07.055Z,8.99
2019-05-01T02:48:42.009Z,8.91
2019-05-01T02:51:14.154Z,8.77
2019-05-01T02:53:47.370Z,8.71
2019-05-01T02:56:42.387Z,8.74
2019-05-01T02:59:15.224Z,8.71
2019-05-01T03:01:48.176Z,8.66
2019-05-01T03:04:20.475Z,8.68
2019-05-01T03:06:52.950Z,8.71
2019-05-01T03:09:25.281Z,8.65
2019-05-01T03:11:57.708Z,8.72
2019-05-01T03:14:32.186Z,8.75
2019-05-01T03:17:07.996Z,8.73
2019-05-01T03:19:59.503Z,8.69
2019-05-01T03:22:43.347Z,8.67
2019-05-01T03:25:15.090Z,8.76
2019-05-01T03:27:47.170Z,8.74
2019-05-01T03:30:18.955Z,8.77
2019-05-01T03:32:50.769Z,8.86
2019-05-01T03:35:22.254Z,8.89
2019-05-01T03:37:54.109Z,8.86
2019-05-01T03:40:26.374Z,8.83
2019-05-01T03:42:58.235Z,8.86
2019-05-01T03:45:33.929Z,8.86
2019-05-01T03:48:04.922Z,8.87
2019-05-01T03:50:36.782Z,8.89
2019-05-01T03:53:08.668Z,8.93
2019-05-01T03:55:40.464Z,8.94
2019-05-01T03:58:12.128Z,8.83
2019-05-01T04:00:54.315Z,8.75
2019-05-01T04:03:47.677Z,8.73
2019-05-01T04:06:19.732Z,8.67
2019-05-01T04:08:51.560Z,8.59
2019-05-01T04:11:23.306Z,8.61
2019-05-01T04:13:55.439Z,8.59
2019-05-01T04:16:27.000Z,8.54
2019-05-01T04:18:59.197Z,8.45
2019-05-01T04:21:36.089Z,8.39
2019-05-01T04:24:08.111Z,8.33
2019-05-01T04:26:39.733Z,8.33
2019-05-01T04:29:30.573Z,8.35
2019-05-01T04:32:52.181Z,8.32
2019-05-01T04:35:21.740Z,8.40
2019-05-01T04:37:57.310Z,8.41
2019-05-01T04:40:29.257Z,8.26
2019-05-01T04:43:00.761Z,7.80
2019-05-01T04:45:32.475Z,7.64
2019-05-01T04:48:04.347Z,7.71
2019-05-01T04:50:35.952Z,7.66
2019-05-01T04:53:07.952Z,7.80
2019-05-01T04:55:39.861Z,7.95
2019-05-01T04:58:12.058Z,8.17
2019-05-01T05:00:43.729Z,8.21
2019-05-01T05:03:18.623Z,8.32
2019-05-01T05:05:50.306Z,8.36
2019-05-01T05:08:22.408Z,8.35
2019-05-01T05:10:55.976Z,8.41
2019-05-01T05:13:39.706Z,8.43
2019-05-01T05:16:26.400Z,8.46
2019-05-01T05:18:58.213Z,8.57
2019-05-01T05:21:29.917Z,8.72
2019-05-01T05:24:01.453Z,8.88
2019-05-01T05:26:33.432Z,8.91
2019-05-01T05:29:05.438Z,9.00
2019-05-01T05:31:37.796Z,9.08
2019-05-01T05:34:11.918Z,9.17
2019-05-01T05:36:45.038Z,9.15
2019-05-01T05:39:32.480Z,9.26
2019-05-01T05:42:05.853Z,9.39
2019-05-01T05:44:37.839Z,9.53
2019-05-01T05:47:10.038Z,9.47
2019-05-01T05:49:41.772Z,9.46
2019-05-01T05:52:45.110Z,9.43
2019-05-01T05:55:35.526Z,9.26
2019-05-01T05:58:21.983Z,9.32
2019-05-01T06:01:18.669Z,9.44
2019-05-01T06:04:12.383Z,9.50
2019-05-01T06:07:00.562Z,9.43
2019-05-01T06:09:52.721Z,9.68
2019-05-01T06:12:46.276Z,9.70
2019-05-01T06:15:49.006Z,9.71
2019-05-01T06:18:26.443Z,9.70
2019-05-01T06:21:17.369Z,9.74
2019-05-01T06:24:06.320Z,9.65
2019-05-01T06:26:37.425Z,9.61
2019-05-01T06:29:08.269Z,9.62
2019-05-01T06:31:40.228Z,9.64
2019-05-01T06:34:11.794Z,9.66
2019-05-01T06:36:44.282Z,9.79
2019-05-01T06:39:17.008Z,9.91
2019-05-01T06:41:48.951Z,9.89
2019-05-01T06:44:43.904Z,9.94
2019-05-01T06:47:38.356Z,10.04
2019-05-01T06:50:32.130Z,10.11
2019-05-01T06:53:05.948Z,10.10
2019-05-01T06:55:38.235Z,10.18
2019-05-01T06:58:10.057Z,10.21
2019-05-01T07:00:43.053Z,10.32
2019-05-01T07:03:15.741Z,10.38
2019-05-01T07:05:48.992Z,10.50
2019-05-01T07:08:24.794Z,10.62
2019-05-01T07:10:54.262Z,10.79
2019-05-01T07:13:25.905Z,10.94
2019-05-01T07:16:00.375Z,10.97
2019-05-01T07:18:30.961Z,11.04
2019-05-01T07:21:02.567Z,11.22
2019-05-01T07:23:34.249Z,11.29
2019-05-01T07:26:09.924Z,11.48
2019-05-01T07:28:40.768Z,11.48
2019-05-01T07:31:14.456Z,11.65
2019-05-01T07:33:51.323Z,11.74
2019-05-01T07:36:21.030Z,11.66
2019-05-01T07:38:52.862Z,11.78
2019-05-01T07:41:24.612Z,11.99
2019-05-01T07:44:16.521Z,12.23
2019-05-01T07:46:56.298Z,12.14
2019-05-01T07:49:47.760Z,12.43
2019-05-01T07:52:18.752Z,12.86
2019-05-01T07:54:51.766Z,12.98
2019-05-01T07:57:24.860Z,13.11
2019-05-01T07:59:58.269Z,13.26
2019-05-01T08:02:31.090Z,13.29
2019-05-01T08:05:04.964Z,13.32
2019-05-01T08:07:37.774Z,13.27
2019-05-01T08:10:09.616Z,13.21
2019-05-01T08:12:41.170Z,13.23
2019-05-01T08:15:12.783Z,13.35
2019-05-01T08:17:48.785Z,13.22
2019-05-01T08:20:35.669Z,13.24
2019-05-01T08:23:07.669Z,13.30
2019-05-01T08:25:39.368Z,13.30
2019-05-01T08:28:16.656Z,13.34
2019-05-01T08:31:01.861Z,13.34
2019-05-01T08:33:52.222Z,13.33
2019-05-01T08:36:23.741Z,13.48
2019-05-01T08:38:55.368Z,13.44
2019-05-01T08:41:31.692Z,13.40
2019-05-01T08:44:00.531Z,13.49
2019-05-01T08:46:51.017Z,13.53
2019-05-01T08:49:30.649Z,13.60
2019-05-01T08:52:04.877Z,13.52
2019-05-01T08:54:35.556Z,13.51
2019-05-01T08:57:08.048Z,13.55
2019-05-01T08:59:39.673Z,13.72
2019-05-01T09:02:11.312Z,13.56
2019-05-01T09:04:43.061Z,13.56
2019-05-01T09:07:19.142Z,13.73
2019-05-01T09:09:48.325Z,13.79
2019-05-01T09:12:19.918Z,13.87
2019-05-01T09:14:51.454Z,13.76
2019-05-01T09:17:23.191Z,13.72
2019-05-01T09:19:54.730Z,13.70
2019-05-01T09:22:26.497Z,13.76
2019-05-01T09:24:59.914Z,13.69
2019-05-01T09:27:55.478Z,13.85
2019-05-01T09:30:31.130Z,13.86
2019-05-01T09:33:02.798Z,13.79
2019-05-01T09:35:34.454Z,13.90
2019-05-01T09:38:06.049Z,14.07
2019-05-01T09:40:37.867Z,14.14
2019-05-01T09:43:09.476Z,14.18
2019-05-01T09:45:41.074Z,14.00
2019-05-01T09:48:12.754Z,13.81
2019-05-01T09:50:48.982Z,13.85
2019-05-01T09:53:29.738Z,14.23
2019-05-01T09:56:07.678Z,14.14
2019-05-01T09:58:38.915Z,14.42
2019-05-01T10:01:11.709Z,14.26
2019-05-01T10:03:44.863Z,14.08
2019-05-01T10:06:18.840Z,14.57
2019-05-01T10:08:50.554Z,14.62
2019-05-01T10:11:22.108Z,14.73
2019-05-01T10:13:58.284Z,14.55
2019-05-01T10:16:26.981Z,14.47
2019-05-01T10:18:58.697Z,14.26
2019-05-01T10:21:30.229Z,14.25
2019-05-01T10:24:01.784Z,14.29
2019-05-01T10:26:35.053Z,14.40
2019-05-01T10:29:21.398Z,14.45
2019-05-01T10:32:16.878Z,14.27
2019-05-01T10:34:57.053Z,14.47
2019-05-01T10:37:33.427Z,14.45
2019-05-01T10:40:01.978Z,14.49
2019-05-01T10:42:34.815Z,14.59
2019-05-01T10:45:06.677Z,14.83
2019-05-01T10:47:38.429Z,14.76
2019-05-01T10:50:10.353Z,14.68
2019-05-01T10:52:41.889Z,14.66
2019-05-01T10:55:13.599Z,14.89
2019-05-01T10:57:45.091Z,14.65
2019-05-01T11:00:17.035Z,14.71
2019-05-01T11:02:48.678Z,15.02
2019-05-01T11:05:20.302Z,15.05
2019-05-01T11:07:51.817Z,15.24
2019-05-01T11:10:23.372Z,15.63
2019-05-01T11:12:55.040Z,15.37
2019-05-01T11:15:26.683Z,15.46
2019-05-01T11:17:58.400Z,15.17
2019-05-01T11:20:31.223Z,15.64
2019-05-01T11:23:02.756Z,15.67
2019-05-01T11:25:35.015Z,15.65
2019-05-01T11:28:07.810Z,15.52
2019-05-01T11:30:39.408Z,15.78
2019-05-01T11:33:42.938Z,15.84
2019-05-01T11:36:34.510Z,15.93
2019-05-01T11:39:28.024Z,15.86
2019-05-01T11:42:04.192Z,15.82
2019-05-01T11:44:35.817Z,15.98
2019-05-01T11:47:07.480Z,15.91
2019-05-01T11:49:39.053Z,15.82
2019-05-01T11:52:10.715Z,16.00
2019-05-01T11:54:42.406Z,16.13
2019-05-01T11:57:14.046Z,16.50
2019-05-01T11:59:45.630Z,16.21
2019-05-01T12:02:17.296Z,16.17
2019-05-01T12:04:48.965Z,16.21
2019-05-01T12:07:20.575Z,16.17
2019-05-01T12:09:52.117Z,16.04
2019-05-01T12:12:25.432Z,15.97
2019-05-01T12:14:56.957Z,16.18
2019-05-01T12:17:33.721Z,16.91
2019-05-01T12:20:05.996Z,17.82
2019-05-01T12:22:37.644Z,17.54
2019-05-01T12:25:09.343Z,16.81
2019-05-01T12:27:40.922Z,16.70
2019-05-01T12:30:15.683Z,17.36
2019-05-01T12:32:47.238Z,17.84
2019-05-01T12:35:18.833Z,17.98
2019-05-01T12:37:50.987Z,18.59
2019-05-01T12:40:23.773Z,16.98
2019-05-01T12:42:55.529Z,17.02
2019-05-01T12:45:27.247Z,17.37
2019-05-01T12:48:04.113Z,17.32
2019-05-01T12:50:37.219Z,17.25
2019-05-01T12:53:28.759Z,17.78
2019-05-01T12:56:17.924Z,17.57
2019-05-01T12:58:50.915Z,17.77
2019-05-01T13:01:22.474Z,17.63
2019-05-01T13:03:54.106Z,18.33
2019-05-01T13:06:25.642Z,18.39
2019-05-01T13:08:57.232Z,18.27
2019-05-01T13:11:28.978Z,18.41
2019-05-01T13:14:00.852Z,18.77
2019-05-01T13:16:32.431Z,18.67
2019-05-01T13:19:04.120Z,18.34
2019-05-01T13:21:35.747Z,18.47
2019-05-01T13:24:07.737Z,17.84
2019-05-01T13:26:47.148Z,17.58
2019-05-01T13:29:32.737Z,18.14
2019-05-01T13:32:26.251Z,18.23
2019-05-01T13:34:57.902Z,18.10
2019-05-01T13:37:29.498Z,17.94
2019-05-01T13:40:01.143Z,18.08
2019-05-01T13:42:32.915Z,17.73
2019-05-01T13:45:05.357Z,17.59
2019-05-01T13:47:37.047Z,17.56
2019-05-01T13:50:09.436Z,17.06
2019-05-01T13:52:41.242Z,16.91
2019-05-01T13:55:13.516Z,16.77
2019-05-01T13:57:45.213Z,17.02
2019-05-01T14:00:18.023Z,17.03
2019-05-01T14:02:49.799Z,17.06
2019-05-01T14:05:21.474Z,17.41
2019-05-01T14:07:52.974Z,17.10
2019-05-01T14:10:24.603Z,16.66
2019-05-01T14:12:56.225Z,17.05
2019-05-01T14:15:27.755Z,17.08
2019-05-01T14:17:59.312Z,16.82
2019-05-01T14:20:48.234Z,16.81
2019-05-01T14:23:25.387Z,16.66
2019-05-01T14:26:06.614Z,17.26
2019-05-01T14:28:38.342Z,17.43
2019-05-01T14:31:09.846Z,17.68
2019-05-01T14:33:41.510Z,17.73
2019-05-01T14:36:13.096Z,17.63
2019-05-01T14:38:46.424Z,17.35
2019-05-01T14:41:17.919Z,17.54
2019-05-01T14:43:49.571Z,17.51
2019-05-01T14:46:21.160Z,17.75
2019-05-01T14:48:52.718Z,17.51
2019-05-01T14:51:24.279Z,17.32
2019-05-01T14:53:55.880Z,17.22
2019-05-01T14:56:27.471Z,17.52
2019-05-01T14:58:59.598Z,17.27
2019-05-01T15:01:31.181Z,17.29
2019-05-01T15:04:02.870Z,17.45
2019-05-01T15:06:34.475Z,17.44
2019-05-01T15:09:08.337Z,17.60
2019-05-01T15:11:41.146Z,17.40
2019-05-01T15:14:30.488Z,17.98
2019-05-01T15:17:18.911Z,18.33
2019-05-01T15:20:03.165Z,18.61
2019-05-01T15:22:36.349Z,18.80
2019-05-01T15:25:08.174Z,18.30
2019-05-01T15:27:39.823Z,18.27
2019-05-01T15:30:13.198Z,18.03
2019-05-01T15:32:44.705Z,17.43
2019-05-01T15:35:16.534Z,17.33
2019-05-01T15:37:56.595Z,17.68
2019-05-01T15:40:28.797Z,17.45
2019-05-01T15:43:23.677Z,17.74
2019-05-01T15:45:55.275Z,17.55
2019-05-01T15:48:26.984Z,18.07
2019-05-01T15:50:58.748Z,18.03
2019-05-01T15:53:30.676Z,17.55
2019-05-01T15:56:02.265Z,17.89
2019-05-01T15:58:34.034Z,17.80
2019-05-01T16:01:05.530Z,17.66
2019-05-01T16:03:37.165Z,17.42
2019-05-01T16:06:08.733Z,17.39
2019-05-01T16:08:40.320Z,17.42
2019-05-01T16:11:19.926Z,17.31
2019-05-01T16:13:51.502Z,17.30
2019-05-01T16:16:23.283Z,17.13
2019-05-01T16:18:54.859Z,16.90
2019-05-01T16:21:26.929Z,16.53
2019-05-01T16:23:58.474Z,16.43
2019-05-01T16:26:30.370Z,16.41
2019-05-01T16:29:02.004Z,16.38
2019-05-01T16:31:33.538Z,16.59
2019-05-01T16:34:05.198Z,16.84
2019-05-01T16:36:36.710Z,16.92
2019-05-01T16:39:42.799Z,16.77
2019-05-01T16:42:14.434Z,16.83
2019-05-01T16:44:45.901Z,17.19
2019-05-01T16:47:17.705Z,17.40
2019-05-01T16:49:49.463Z,16.93
2019-05-01T16:52:25.210Z,16.87
2019-05-01T16:54:59.323Z,16.95
2019-05-01T16:57:30.281Z,16.61
2019-05-01T17:00:02.142Z,16.63
2019-05-01T17:03:00.507Z,16.52
2019-05-01T17:06:09.197Z,16.40
2019-05-01T17:08:52.991Z,16.39
2019-05-01T17:11:28.131Z,16.34
2019-05-01T17:14:00.152Z,16.58
2019-05-01T17:16:31.733Z,16.45
2019-05-01T17:19:03.946Z,16.65
2019-05-01T17:42:39.207Z,15.63
2019-05-01T17:45:11.444Z,15.41
2019-05-01T17:47:43.621Z,15.34
2019-05-01T17:50:16.381Z,15.29
2019-05-01T17:52:48.886Z,15.19
2019-05-01T17:55:20.726Z,15.05
2019-05-01T17:57:52.816Z,15.02
2019-05-01T18:00:46.812Z,14.90
2019-05-01T18:03:52.588Z,14.86
2019-05-01T18:06:27.583Z,14.62
2019-05-01T18:09:03.266Z,14.64
2019-05-01T18:11:34.189Z,14.47
2019-05-01T18:14:06.181Z,14.44
2019-05-01T18:16:39.754Z,14.37
2019-05-01T18:19:15.324Z,14.35
2019-05-01T18:21:52.232Z,14.29
2019-05-01T18:24:47.329Z,14.27
2019-05-01T18:27:36.959Z,14.24
2019-05-01T18:30:15.948Z,14.17
2019-05-01T18:32:46.923Z,14.02
2019-05-01T18:35:19.146Z,13.89
2019-05-01T18:38:06.138Z,13.83
2019-05-01T18:41:04.086Z,13.77
2019-05-01T18:43:35.885Z,13.61
2019-05-01T18:46:09.382Z,13.54
2019-05-01T18:48:41.544Z,13.47
2019-05-01T18:51:16.255Z,13.47
2019-05-01T18:53:47.112Z,13.37
2019-05-01T18:56:18.752Z,13.26
2019-05-01T18:58:50.505Z,13.26
2019-05-01T19:01:22.718Z,13.19
2019-05-01T19:03:54.475Z,13.14
2019-05-01T19:06:40.375Z,13.09
2019-05-01T19:09:00.369Z,13.00
2019-05-01T19:11:33.691Z,12.96
2019-05-01T19:14:06.100Z,12.96
2019-05-01T19:16:40.057Z,12.94
2019-05-01T19:19:12.760Z,12.93
2019-05-01T19:21:46.519Z,12.94
2019-05-01T19:24:18.624Z,12.90
2019-05-01T19:26:50.482Z,12.86
2019-05-01T19:29:26.877Z,12.80
2019-05-01T19:31:55.645Z,12.78
2019-05-01T19:34:27.784Z,12.79
2019-05-01T19:37:01.401Z,12.78
2019-05-01T19:39:43.574Z,12.74
2019-05-01T19:42:06.943Z,12.67
2019-05-01T19:44:38.750Z,12.67
2019-05-01T19:47:11.114Z,12.63
2019-05-01T19:49:43.119Z,12.60
2019-05-01T19:52:14.890Z,12.71
2019-05-01T19:54:46.855Z,12.61
2019-05-01T19:57:18.733Z,12.66
2019-05-01T19:59:50.743Z,12.54
2019-05-01T20:02:24.067Z,12.49
2019-05-01T20:04:56.539Z,12.42
2019-05-01T20:07:28.146Z,12.32
2019-05-01T20:10:00.107Z,12.29
2019-05-01T20:12:32.345Z,12.28
2019-05-01T20:15:05.039Z,12.21
2019-05-01T20:17:37.204Z,12.22
2019-05-01T20:20:09.288Z,12.22
2019-05-01T20:22:41.273Z,12.27
2019-05-01T20:25:14.698Z,12.30
2019-05-01T20:27:52.989Z,12.16
2019-05-01T20:30:21.608Z,11.91
2019-05-01T20:32:53.334Z,11.74
2019-05-01T20:35:28.440Z,11.51
2019-05-01T20:37:58.590Z,11.35
2019-05-01T20:40:31.327Z,11.30
2019-05-01T20:43:05.819Z,11.17
2019-05-01T20:45:38.340Z,11.14
2019-05-01T20:48:10.743Z,11.05
2019-05-01T20:50:42.697Z,10.99
2019-05-01T20:53:15.076Z,10.92
2019-05-01T20:55:53.797Z,10.88
2019-05-01T20:58:25.678Z,10.88
2019-05-01T21:01:02.412Z,10.78
2019-05-01T21:03:35.546Z,10.73
2019-05-01T21:06:28.365Z,10.72
2019-05-01T21:09:21.643Z,10.72
2019-05-01T21:12:05.143Z,10.71
2019-05-01T21:14:30.185Z,10.72
2019-05-01T21:17:01.876Z,10.74
2019-05-01T21:19:35.882Z,10.72
2019-05-01T21:22:06.952Z,10.71
2019-05-01T21:24:38.897Z,10.70
2019-05-01T21:27:10.880Z,10.69
2019-05-01T21:29:44.511Z,10.69
2019-05-01T21:32:18.251Z,10.73
2019-05-01T21:34:50.085Z,10.71
2019-05-01T21:37:21.748Z,10.75
2019-05-01T21:39:55.585Z,10.72
2019-05-01T21:42:27.271Z,10.74
2019-05-01T21:44:59.149Z,10.72
2019-05-01T21:47:31.109Z,10.72
2019-05-01T21:50:03.335Z,10.69
2019-05-01T21:52:35.555Z,10.66
2019-05-01T21:55:07.658Z,10.67
2019-05-01T21:57:40.783Z,10.68
2019-05-01T22:00:15.490Z,10.67
2019-05-01T22:02:48.625Z,10.72
2019-05-01T22:05:20.263Z,10.74
2019-05-01T22:07:52.373Z,10.75
2019-05-01T22:10:26.460Z,10.77
2019-05-01T22:12:58.144Z,10.82
2019-05-01T22:15:35.047Z,10.80
2019-05-01T22:18:12.771Z,10.78
2019-05-01T22:20:51.784Z,10.83
2019-05-01T22:23:25.371Z,10.74
2019-05-01T22:25:57.796Z,10.71
2019-05-01T22:28:35.300Z,10.73
2019-05-01T22:31:21.852Z,10.73
2019-05-01T22:33:54.731Z,10.78
2019-05-01T22:36:26.603Z,10.80
2019-05-01T22:39:02.278Z,10.74
2019-05-01T22:41:33.710Z,10.72
2019-05-01T22:44:06.109Z,10.77
2019-05-01T22:46:40.533Z,10.78
2019-05-01T22:49:12.349Z,10.74
2019-05-01T22:51:44.367Z,10.68
2019-05-01T22:54:16.392Z,10.63
2019-05-01T22:56:48.124Z,10.59
2019-05-01T22:59:20.356Z,10.51
2019-05-01T23:01:54.513Z,10.59
2019-05-01T23:04:26.551Z,10.52
2019-05-01T23:06:58.340Z,10.50
2019-05-01T23:09:31.692Z,10.54
2019-05-01T23:12:03.433Z,10.50
2019-05-01T23:14:35.607Z,10.57
2019-05-01T23:17:34.896Z,10.58
2019-05-01T23:20:08.356Z,10.60
2019-05-01T23:22:40.335Z,10.64
2019-05-01T23:25:13.551Z,10.53
2019-05-01T23:27:45.613Z,10.48
2019-05-01T23:30:19.337Z,10.43
2019-05-01T23:32:51.088Z,10.43
2019-05-01T23:35:22.766Z,10.31
2019-05-01T23:37:54.388Z,10.29
2019-05-01T23:40:27.206Z,10.26
2019-05-01T23:42:59.263Z,10.14
2019-05-01T23:45:30.840Z,10.18
2019-05-01T23:48:02.553Z,10.11
2019-05-01T23:50:34.196Z,10.19
2019-05-01T23:53:09.082Z,10.14
2019-05-01T23:55:39.616Z,10.18
2019-05-01T23:58:11.260Z,10.15
